Meteo Giornale » Osservazioni meteo Italia » Trieste

ore: 03:55 - Osservazioni Meteo Trieste
Lat. 45° 39' N Lon. 13° 45' E Alt. 8 metri s.l.m.

sereno Europe/Rome

14 °C

Sereno

Temp. 24 Ore

14 °C

25 °C

Nord

0 Km/h

Dew point 10 °C

Umidità 76 %

Visibilità  10 Km

Il sole sorge alle ore 06:04

Il sole tramonta alle ore 20:02

Data e Ora Cielo e Fenomeni T °C DP °C Um. % Pres. hPa Vis. km Vento km/h
Oggi h: 03:55 sereno Sereno 14 10 76 1018 10 N 0
Oggi h: 02:55 sereno Sereno 15 10 72 1019 10 N 1.8
Oggi h: 01:55 sereno Sereno 15 10 72 1019 10 N 1.8
Oggi h: 00:55 sereno Sereno 16 10 67 1019 10 N 3.7
Ieri h: 23:55 sereno Sereno 16 10 67 1019 10 N 0
Ieri h: 22:55 sereno Sereno 17 8 55 1019 10 N 1.8
Ieri h: 21:55 sereno Sereno 18 8 51 1019 10 N 3.7
Ieri h: 20:55 sereno Sereno 18 9 55 1019 10 N 5.5
Ieri h: 19:55 sereno Sereno 21 12 56 1018 10 N 0
Ieri h: 18:55 sereno Sereno 22 11 49 1018 10 N 0
Ieri h: 17:55 sereno Sereno 22 11 49 1018 10 N 3.7
Ieri h: 16:55 sereno Sereno 24 11 43 1018 10 N 1.8
Ieri h: 15:55 sereno Sereno 25 11 41 1019 10 N 1.8
Ieri h: 14:55 sereno Sereno 25 12 44 1019 10 N 1.8
Ieri h: 13:55 sereno Sereno 24 16 60 1019 10 N 1.8
Ieri h: 12:55 sereno Sereno 24 15 57 1020 10 N 1.8
Ieri h: 11:55 sereno Sereno 23 14 56 1020 10 N 1.8
Ieri h: 10:55 sereno Sereno 23 13 53 1020 10 N 0
Ieri h: 09:55 sereno Sereno 21 14 64 1020 10 N 3.7
Ieri h: 08:55 sereno Sereno 20 14 68 1020 10 N 3.7
Ieri h: 07:55 sereno Sereno 18 13 72 1020 10 N 0
Ieri h: 06:55 sereno Sereno 17 12 72 1020 10 N 0
Ieri h: 05:55 sereno Sereno 21 11 52 1020 10 NE 11.1
Ieri h: 04:55 sereno Sereno 21 11 52 1019 10 E/NE 18.5